MST,Max TemperatureF,Mean TemperatureF,Min TemperatureF,Max Dew PointF,MeanDew PointF,Min DewpointF,Max Humidity, Mean Humidity, Min Humidity, Max Sea Level PressureIn, Mean Sea Level PressureIn, Min Sea Level PressureIn, Max VisibilityMiles, Mean VisibilityMiles, Min VisibilityMiles, Max Wind SpeedMPH, Mean Wind SpeedMPH, Max Gust SpeedMPH,PrecipitationIn, CloudCover, Events, WindDirDegrees
2012-12-1,57,44,30,35,31,27,89,62,35,29.83,29.76,29.65,10,10,10,23,12,29,0.00,0,,227
2012-12-2,59,50,41,36,30,28,58,46,33,29.78,29.51,29.31,10,10,10,53,29,63,0.00,1,,209
2012-12-3,50,36,21,36,21,10,78,50,21,30.19,29.94,29.65,10,10,10,33,8,41,T,2,Rain,269
2012-12-4,50,34,18,30,20,13,77,51,24,30.27,30.12,29.95,10,10,10,32,14,43,0.00,1,,195
2012-12-5,58,49,39,35,32,22,79,60,40,29.95,29.79,29.65,10,10,10,28,16,35,0.00,3,,251
2012-12-6,39,31,23,28,21,14,92,65,37,30.06,29.93,29.81,10,8,2,18,8,23,0.03,6,Snow,35
2012-12-7,32,23,14,27,23,13,100,84,68,29.99,29.88,29.79,10,7,1,16,8,21,0.10,5,Snow,300
2012-12-8,33,21,9,21,12,5,92,75,58,30.23,29.86,29.56,10,5,1,37,20,45,T,7,Snow,309
2012-12-9,15,6,-4,5,1,-6,95,77,58,30.51,30.27,30.06,10,9,2,23,6,28,T,3,Snow,310
2012-12-10,28,20,12,23,18,5,92,74,56,30.02,29.91,29.79,10,7,0,26,13,35,0.03,7,Fog-Snow,281
2012-12-11,37,27,17,21,16,9,74,63,51,29.98,29.78,29.54,10,10,10,26,18,33,0.00,3,,222
2012-12-12,48,37,25,24,23,21,85,62,39,29.87,29.64,29.55,10,10,10,32,14,40,0.00,1,,226
2012-12-13,50,33,16,24,21,15,100,65,29,29.97,29.88,29.74,10,10,10,23,13,29,0.00,0,,197
2012-12-14,50,34,18,21,18,16,92,61,29,29.76,29.66,29.54,10,10,10,21,6,26,0.00,0,,197
2012-12-15,34,25,15,25,20,15,100,76,51,29.88,29.77,29.68,10,9,2,14,5,17,0.00,5,,325
2012-12-16,36,24,11,22,16,10,92,70,47,29.86,29.73,29.60,10,10,10,18,6,23,0.00,3,,261
2012-12-17,47,30,12,30,19,9,85,60,34,29.75,29.54,29.39,10,10,3,22,11,28,T,4,Snow,216
2012-12-18,35,22,9,25,10,0,85,54,23,29.89,29.74,29.55,10,10,10,24,12,30,0.00,0,,275
2012-12-19,27,16,5,7,3,-1,73,55,37,30.24,30.09,29.82,10,10,10,22,10,26,0.00,0,,276
2012-12-20,43,28,13,5,3,-2,63,42,20,30.20,30.14,30.06,10,10,10,29,19,36,0.00,0,,224
2012-12-21,50,41,32,5,3,2,29,22,14,30.04,29.98,29.91,10,10,10,31,21,38,0.00,0,,226
2012-12-22,50,31,11,9,5,3,67,41,14,30.11,29.92,29.67,10,10,10,31,10,40,0.00,0,,183
2012-12-23,38,23,7,21,12,4,91,58,24,30.12,29.96,29.69,10,10,10,24,7,31,0.00,1,,273
2012-12-24,29,17,5,23,10,1,92,84,75,30.32,30.04,29.81,10,6,2,17,9,20,0.04,7,Snow,16
2012-12-25,13,4,-5,6,0,-8,95,83,70,30.49,30.27,29.92,10,6,1,15,7,17,0.02,6,Snow,202
2012-12-26,23,13,2,16,11,-1,96,82,67,30.12,29.82,29.65,10,5,1,17,8,22,0.14,7,Snow,157
2012-12-27,14,8,2,10,5,1,100,90,80,30.11,29.88,29.68,10,5,2,14,6,17,0.09,7,Snow,340
2012-12-28,26,18,9,20,13,6,88,80,71,30.16,30.09,29.91,10,10,6,17,12,21,T,5,Snow,262
2012-12-29,27,20,12,15,10,5,80,68,55,30.20,30.09,29.86,10,10,10,21,12,24,0.00,0,,201
2012-12-30,24,16,7,18,9,5,84,76,67,30.21,30.11,29.97,10,10,10,16,8,20,0.00,1,,265
2012-12-31,26,10,-7,13,7,-5,95,78,60,30.24,30.18,30.00,10,10,8,12,4,12,T,2,,261